Time;durP1;ratioP1;P1;durP2;ratioP2;P2;SDS_P1;SDS_P2;PMS_P1;PMS_P2;Temp;Humidity;BMP_temperature;BMP_pressure;BME280_temperature;BME280_humidity;BME280_pressure;Samples;Min_cycle;Max_cycle;Signal;HPM_P1;HPM_P2
2022/06/15 00:01:14;;;;;;;7.30;6.80;;;;;;;;;;4936913;29;21052;-68
2022/06/15 00:03:40;;;;;;;7.43;6.93;;;;;;;;;;4936971;29;20520;-68
2022/06/15 00:06:17;;;;;;;7.40;7.10;;;;;;;;;;4936886;29;20413;-68
2022/06/15 00:08:44;;;;;;;8.13;7.23;;;;;;;;;;4936806;29;20459;-68
2022/06/15 00:11:14;;;;;;;13.53;7.33;;;;;;;;;;4936716;29;20436;-70
2022/06/15 00:13:40;;;;;;;7.93;7.33;;;;;;;;;;4936809;29;20441;-70
2022/06/15 00:16:06;;;;;;;8.03;7.40;;;;;;;;;;4936755;29;20445;-70
2022/06/15 00:18:33;;;;;;;8.53;7.83;;;;;;;;;;4936717;29;20422;-70
2022/06/15 00:20:59;;;;;;;9.40;7.30;;;;;;;;;;4936485;29;20499;-70
2022/06/15 00:23:26;;;;;;;8.30;7.70;;;;;;;;;;4936667;29;20421;-70
2022/06/15 00:25:52;;;;;;;7.57;7.10;;;;;;;;;;4936454;29;20425;-70
2022/06/15 00:28:19;;;;;;;8.60;7.93;;;;;;;;;;4936526;29;20420;-71
2022/06/15 00:30:46;;;;;;;9.50;8.60;;;;;;;;;;4936571;29;20919;-68
2022/06/15 00:33:12;;;;;;;8.37;7.60;;;;;;;;;;4936612;29;20553;-69
2022/06/15 00:35:38;;;;;;;8.70;8.00;;;;;;;;;;4936611;29;20415;-68
2022/06/15 00:38:05;;;;;;;8.93;8.10;;;;;;;;;;4936502;29;20472;-68
2022/06/15 00:40:31;;;;;;;9.03;8.13;;;;;;;;;;4936572;29;20457;-68
2022/06/15 00:42:57;;;;;;;7.33;6.63;;;;;;;;;;4936466;29;20973;-68
2022/06/15 00:45:23;;;;;;;7.60;6.90;;;;;;;;;;4936606;29;20960;-69
2022/06/15 00:47:49;;;;;;;8.63;8.00;;;;;;;;;;4936453;29;20507;-68
2022/06/15 00:50:22;;;;;;;7.70;7.00;;;;;;;;;;4936280;29;20924;-70
2022/06/15 00:52:53;;;;;;;6.80;6.30;;;;;;;;;;4936465;29;20809;-68
2022/06/15 00:55:24;;;;;;;8.50;7.60;;;;;;;;;;4936460;29;20508;-70
2022/06/15 00:57:50;;;;;;;8.60;7.73;;;;;;;;;;4935878;29;20424;-70
2022/06/15 01:00:16;;;;;;;8.33;7.63;;;;;;;;;;4936217;29;20424;-69
2022/06/15 01:02:43;;;;;;;8.30;7.60;;;;;;;;;;4918951;29;20482;-68
2022/06/15 01:05:12;;;;;;;10.17;7.80;;;;;;;;;;4936138;29;20411;-69
2022/06/15 01:08:01;;;;;;;8.10;7.47;;;;;;;;;;4936070;29;20454;-70
2022/06/15 01:10:27;;;;;;;8.57;7.83;;;;;;;;;;4928444;29;20467;-69
2022/06/15 01:13:02;;;;;;;10.20;7.03;;;;;;;;;;4936019;29;20828;-70
2022/06/15 01:15:28;;;;;;;7.10;6.70;;;;;;;;;;4936059;29;20404;-70
2022/06/15 01:18:07;;;;;;;11.13;7.07;;;;;;;;;;4936108;29;20921;-70
2022/06/15 01:20:33;;;;;;;7.47;6.60;;;;;;;;;;4935971;29;20412;-69
2022/06/15 01:23:18;;;;;;;8.30;5.80;;;;;;;;;;4918804;29;20488;-69
2022/06/15 01:25:46;;;;;;;6.70;6.10;;;;;;;;;;4935888;29;20411;-67
2022/06/15 01:28:31;;;;;;;6.50;6.10;;;;;;;;;;4936175;29;20446;-68
2022/06/15 01:31:06;;;;;;;8.10;7.40;;;;;;;;;;4935990;29;20431;-69
2022/06/15 01:33:39;;;;;;;8.03;7.30;;;;;;;;;;4935732;29;20483;-69
2022/06/15 01:36:05;;;;;;;7.63;7.13;;;;;;;;;;4935895;29;20415;-69
2022/06/15 01:38:31;;;;;;;7.10;6.60;;;;;;;;;;4935819;29;20507;-68
2022/06/15 01:41:03;;;;;;;7.10;6.60;;;;;;;;;;4935976;29;20502;-68
2022/06/15 01:43:32;;;;;;;10.70;6.30;;;;;;;;;;4918744;29;20521;-69
2022/06/15 01:45:59;;;;;;;11.83;6.93;;;;;;;;;;4935833;29;20412;-68
2022/06/15 01:48:27;;;;;;;7.23;6.63;;;;;;;;;;4935732;29;20422;-68
2022/06/15 01:50:54;;;;;;;7.90;6.60;;;;;;;;;;4935777;29;20412;-69
2022/06/15 01:53:33;;;;;;;7.10;6.43;;;;;;;;;;4935741;29;20753;-69
2022/06/15 01:56:04;;;;;;;10.37;6.67;;;;;;;;;;4935691;29;20519;-69
2022/06/15 01:58:31;;;;;;;8.97;7.47;;;;;;;;;;4935669;29;20441;-71
2022/06/15 02:01:04;;;;;;;8.40;7.27;;;;;;;;;;4935566;29;20415;-69
2022/06/15 02:03:38;;;;;;;8.57;6.50;;;;;;;;;;4935652;29;20903;-68
2022/06/15 02:06:24;;;;;;;7.50;6.80;;;;;;;;;;4935598;29;20439;-69
2022/06/15 02:08:53;;;;;;;7.43;6.93;;;;;;;;;;4935381;29;20795;-68
2022/06/15 02:11:24;;;;;;;8.10;7.33;;;;;;;;;;4938954;29;20834;-68
2022/06/15 02:14:11;;;;;;;9.67;7.30;;;;;;;;;;4922054;29;20759;-68
2022/06/15 02:16:42;;;;;;;8.07;7.33;;;;;;;;;;4938916;29;20419;-67
2022/06/15 02:19:09;;;;;;;8.30;7.70;;;;;;;;;;4938892;29;20419;-67
2022/06/15 02:21:38;;;;;;;6.87;6.50;;;;;;;;;;4938705;29;20502;-67
2022/06/15 02:24:04;;;;;;;6.67;6.00;;;;;;;;;;4938742;29;20430;-69
2022/06/15 02:26:32;;;;;;;8.57;6.60;;;;;;;;;;4938710;29;20419;-67
2022/06/15 02:29:00;;;;;;;7.20;6.50;;;;;;;;;;4938603;29;20459;-68
2022/06/15 02:31:26;;;;;;;9.80;8.00;;;;;;;;;;4938448;29;20781;-68
2022/06/15 02:33:54;;;;;;;7.30;6.57;;;;;;;;;;4938616;29;20422;-68
2022/06/15 02:36:21;;;;;;;7.87;6.57;;;;;;;;;;4938525;29;20400;-67
2022/06/15 02:38:49;;;;;;;7.50;6.90;;;;;;;;;;4938548;29;20407;-68
2022/06/15 02:41:17;;;;;;;9.00;8.40;;;;;;;;;;4938303;29;20466;-68
2022/06/15 02:43:43;;;;;;;8.17;7.40;;;;;;;;;;4938396;29;20411;-69
2022/06/15 02:46:11;;;;;;;8.30;7.60;;;;;;;;;;4938402;29;20821;-67
2022/06/15 02:48:38;;;;;;;9.10;6.60;;;;;;;;;;4938304;29;20420;-68
2022/06/15 02:51:22;;;;;;;7.53;6.93;;;;;;;;;;4938554;29;20433;-69
2022/06/15 02:53:50;;;;;;;8.87;8.07;;;;;;;;;;4938241;29;20406;-67
2022/06/15 02:56:17;;;;;;;8.23;7.53;;;;;;;;;;4938138;29;20414;-69
2022/06/15 02:58:46;;;;;;;14.40;8.20;;;;;;;;;;4938070;29;20407;-68
2022/06/15 03:01:12;;;;;;;8.43;7.63;;;;;;;;;;4937979;29;20426;-67
2022/06/15 03:03:38;;;;;;;9.88;7.70;;;;;;;;;;4937173;29;20437;-69
2022/06/15 03:06:14;;;;;;;8.80;8.10;;;;;;;;;;4937968;29;20651;-68
2022/06/15 03:08:40;;;;;;;8.40;7.57;;;;;;;;;;4937823;29;20418;-67
2022/06/15 03:11:06;;;;;;;7.47;6.97;;;;;;;;;;4937781;29;20423;-69
2022/06/15 03:13:32;;;;;;;8.17;7.67;;;;;;;;;;4937865;29;20415;-69
2022/06/15 03:15:59;;;;;;;8.47;7.60;;;;;;;;;;4937697;29;20430;-67
2022/06/15 03:18:26;;;;;;;8.20;7.60;;;;;;;;;;4937734;29;20927;-69
2022/06/15 03:20:55;;;;;;;7.00;6.60;;;;;;;;;;4937211;29;20434;-67
2022/06/15 03:23:21;;;;;;;7.63;7.03;;;;;;;;;;4937656;29;20424;-69
2022/06/15 03:25:52;;;;;;;10.27;7.63;;;;;;;;;;4937543;29;20426;-69
2022/06/15 03:28:18;;;;;;;10.30;6.70;;;;;;;;;;4937542;29;20752;-68
2022/06/15 03:30:44;;;;;;;8.43;7.07;;;;;;;;;;4937619;29;20470;-68
2022/06/15 03:33:10;;;;;;;7.20;6.60;;;;;;;;;;4937361;29;20981;-67
2022/06/15 03:35:36;;;;;;;6.70;6.20;;;;;;;;;;4937450;29;20880;-67
2022/06/15 03:38:03;;;;;;;9.70;6.20;;;;;;;;;;4937372;29;20821;-67
2022/06/15 03:40:29;;;;;;;8.53;5.70;;;;;;;;;;4937326;29;20860;-68
2022/06/15 03:42:55;;;;;;;7.30;6.70;;;;;;;;;;4937229;29;20512;-69
2022/06/15 03:45:21;;;;;;;6.80;6.30;;;;;;;;;;4920255;29;20474;-67
2022/06/15 03:47:47;;;;;;;6.63;6.33;;;;;;;;;;4937240;29;20500;-69
2022/06/15 03:50:13;;;;;;;7.70;7.00;;;;;;;;;;4937148;29;20850;-68
2022/06/15 03:52:39;;;;;;;7.57;6.87;;;;;;;;;;4920008;29;20465;-68
2022/06/15 03:55:05;;;;;;;6.73;6.43;;;;;;;;;;4937119;29;20437;-69
2022/06/15 03:57:32;;;;;;;6.90;6.30;;;;;;;;;;4937072;29;20458;-67
2022/06/15 03:59:58;;;;;;;8.37;7.00;;;;;;;;;;4937064;29;20418;-69
2022/06/15 04:02:24;;;;;;;9.13;6.80;;;;;;;;;;4936852;29;20629;-68
2022/06/15 04:04:50;;;;;;;8.37;6.60;;;;;;;;;;4936933;29;20425;-69
2022/06/15 04:10:00;;;;;;;8.10;7.50;;;;;;;;;;4936791;29;20421;-67
2022/06/15 04:12:26;;;;;;;7.30;6.60;;;;;;;;;;4936790;29;20875;-68
2022/06/15 04:14:52;;;;;;;7.33;6.63;;;;;;;;;;4936715;29;20415;-68
2022/06/15 04:17:18;;;;;;;6.97;6.40;;;;;;;;;;4936766;29;20513;-68
2022/06/15 04:20:31;;;;;;;7.13;6.23;;;;;;;;;;4936713;29;20409;-68
2022/06/15 04:22:30;;;;;;;7.00;6.30;;;;;;;;;;4936411;29;20486;-67
2022/06/15 04:24:56;;;;;;;6.47;6.00;;;;;;;;;;4936636;29;20407;-68
2022/06/15 04:27:22;;;;;;;8.73;6.90;;;;;;;;;;4936534;29;20923;-69
2022/06/15 04:29:48;;;;;;;6.60;6.03;;;;;;;;;;4919522;29;20836;-68
2022/06/15 04:32:14;;;;;;;6.47;6.07;;;;;;;;;;4935599;29;20468;-69
2022/06/15 04:34:40;;;;;;;7.30;6.37;;;;;;;;;;4936601;29;20427;-67
2022/06/15 04:37:06;;;;;;;6.70;6.20;;;;;;;;;;4936404;29;20499;-67
2022/06/15 04:39:32;;;;;;;6.23;5.93;;;;;;;;;;4936448;29;20847;-68
2022/06/15 04:41:58;;;;;;;6.17;5.90;;;;;;;;;;4936231;29;20528;-67
2022/06/15 04:44:24;;;;;;;6.50;6.10;;;;;;;;;;4936352;29;20408;-68
2022/06/15 04:46:50;;;;;;;6.33;5.80;;;;;;;;;;4936293;29;20470;-69
2022/06/15 04:49:16;;;;;;;6.87;5.93;;;;;;;;;;4936251;29;20404;-68
2022/06/15 04:51:42;;;;;;;6.87;6.17;;;;;;;;;;4919126;29;20428;-69
2022/06/15 04:54:10;;;;;;;5.43;5.13;;;;;;;;;;4936247;29;20799;-68
2022/06/15 04:56:37;;;;;;;7.27;6.77;;;;;;;;;;4936140;29;20423;-68
2022/06/15 04:59:03;;;;;;;10.03;6.40;;;;;;;;;;4936232;29;20416;-67
2022/06/15 05:01:29;;;;;;;7.03;6.50;;;;;;;;;;4936114;29;20463;-68
2022/06/15 05:03:55;;;;;;;6.67;6.10;;;;;;;;;;4919094;29;20490;-67
2022/06/15 05:06:27;;;;;;;6.30;5.47;;;;;;;;;;4936101;29;20784;-67
2022/06/15 05:08:53;;;;;;;7.13;6.53;;;;;;;;;;4936108;29;20412;-68
2022/06/15 05:11:19;;;;;;;5.93;5.43;;;;;;;;;;4936047;29;20489;-68
2022/06/15 05:13:45;;;;;;;6.70;6.20;;;;;;;;;;4936064;29;20521;-69
2022/06/15 05:16:11;;;;;;;6.03;5.70;;;;;;;;;;4936089;29;20412;-67
2022/06/15 05:18:37;;;;;;;5.70;5.30;;;;;;;;;;4936097;29;20419;-68
2022/06/15 05:21:03;;;;;;;11.00;6.00;;;;;;;;;;4935955;29;20412;-69
2022/06/15 05:23:29;;;;;;;6.77;6.00;;;;;;;;;;4919242;29;20442;-68
2022/06/15 05:25:55;;;;;;;7.03;6.50;;;;;;;;;;4918856;29;20428;-68
2022/06/15 05:28:21;;;;;;;10.43;6.07;;;;;;;;;;4935921;29;20910;-67
2022/06/15 05:30:47;;;;;;;6.90;6.33;;;;;;;;;;4935865;29;20416;-69
2022/06/15 05:33:13;;;;;;;6.70;6.13;;;;;;;;;;4935745;29;20507;-70
2022/06/15 05:35:39;;;;;;;6.47;5.97;;;;;;;;;;4935919;29;20955;-69
2022/06/15 05:38:06;;;;;;;6.00;5.50;;;;;;;;;;4935734;29;20915;-70
2022/06/15 05:40:32;;;;;;;6.17;5.80;;;;;;;;;;4935765;29;20424;-69
2022/06/15 05:42:58;;;;;;;6.60;5.97;;;;;;;;;;4935881;29;20479;-68
2022/06/15 05:45:24;;;;;;;5.67;5.23;;;;;;;;;;4939476;29;20405;-68
2022/06/15 05:47:50;;;;;;;11.80;5.63;;;;;;;;;;4939419;29;20927;-70
2022/06/15 05:50:16;;;;;;;5.30;4.90;;;;;;;;;;4939435;29;20436;-70
2022/06/15 05:52:42;;;;;;;5.13;4.90;;;;;;;;;;4939400;29;20413;-69
2022/06/15 05:55:09;;;;;;;4.73;4.40;;;;;;;;;;4939300;29;20421;-69
2022/06/15 05:57:35;;;;;;;5.00;4.60;;;;;;;;;;4939209;29;20452;-70
2022/06/15 06:00:03;;;;;;;4.53;4.17;;;;;;;;;;4922136;29;20814;-69
2022/06/15 06:02:30;;;;;;;4.20;4.00;;;;;;;;;;4939039;29;20603;-69
2022/06/15 06:04:56;;;;;;;4.00;3.80;;;;;;;;;;4939128;29;20463;-69
2022/06/15 06:07:22;;;;;;;4.00;3.87;;;;;;;;;;4939062;29;20413;-70
2022/06/15 06:09:48;;;;;;;5.53;4.27;;;;;;;;;;4938995;29;20410;-70
2022/06/15 06:12:14;;;;;;;6.40;4.47;;;;;;;;;;4938972;29;20473;-70
2022/06/15 06:14:42;;;;;;;5.47;3.50;;;;;;;;;;4938949;29;20425;-69
2022/06/15 06:17:08;;;;;;;7.10;4.00;;;;;;;;;;4939130;29;20474;-69
2022/06/15 06:19:34;;;;;;;6.60;4.17;;;;;;;;;;4921699;29;20429;-70
2022/06/15 06:22:00;;;;;;;4.97;4.53;;;;;;;;;;4938698;29;20482;-70
2022/06/15 06:24:26;;;;;;;11.37;4.30;;;;;;;;;;4938750;29;20408;-69
2022/06/15 06:26:59;;;;;;;4.17;3.97;;;;;;;;;;4938730;29;20434;-68
2022/06/15 06:29:27;;;;;;;4.23;4.10;;;;;;;;;;4938746;29;20412;-69
2022/06/15 06:31:52;;;;;;;5.00;4.57;;;;;;;;;;4938464;29;20518;-70
2022/06/15 06:34:18;;;;;;;10.03;5.37;;;;;;;;;;4921500;29;20521;-70
2022/06/15 06:36:45;;;;;;;3.90;3.70;;;;;;;;;;4938438;29;20412;-71
2022/06/15 06:39:19;;;;;;;3.80;3.63;;;;;;;;;;4938471;29;20417;-72
2022/06/15 06:41:46;;;;;;;4.30;3.57;;;;;;;;;;4938329;29;20512;-71
2022/06/15 06:44:12;;;;;;;3.87;3.67;;;;;;;;;;4938388;29;20427;-71
2022/06/15 06:46:42;;;;;;;4.47;4.17;;;;;;;;;;4938397;29;20412;-76
2022/06/15 06:49:08;;;;;;;8.20;3.50;;;;;;;;;;4921264;29;20507;-73
2022/06/15 06:51:37;;;;;;;6.93;3.80;;;;;;;;;;4938268;29;20500;-70
2022/06/15 06:54:04;;;;;;;3.87;3.33;;;;;;;;;;4938341;29;20435;-69
2022/06/15 06:56:30;;;;;;;3.93;3.73;;;;;;;;;;4920269;29;20423;-71
2022/06/15 06:58:56;;;;;;;4.30;3.77;;;;;;;;;;4938080;29;20407;-71
2022/06/15 07:01:22;;;;;;;4.20;3.47;;;;;;;;;;4937914;29;20407;-70
2022/06/15 07:03:48;;;;;;;4.90;3.53;;;;;;;;;;4938057;29;20424;-70
2022/06/15 07:06:14;;;;;;;4.50;3.70;;;;;;;;;;4937983;29;20433;-70
2022/06/15 07:08:40;;;;;;;3.83;3.63;;;;;;;;;;4933896;29;20465;-70
2022/06/15 07:11:10;;;;;;;5.33;3.67;;;;;;;;;;4918423;29;20827;-71
2022/06/15 07:13:36;;;;;;;4.20;3.80;;;;;;;;;;4935471;29;20424;-69
2022/06/15 07:16:05;;;;;;;4.60;3.30;;;;;;;;;;4935404;29;20422;-69
2022/06/15 07:18:32;;;;;;;3.63;3.40;;;;;;;;;;4935229;29;20434;-68
2022/06/15 07:21:02;;;;;;;8.73;3.87;;;;;;;;;;4937965;29;20821;-69
2022/06/15 07:23:28;;;;;;;5.33;3.80;;;;;;;;;;4920659;29;20478;-68
2022/06/15 07:25:53;;;;;;;3.93;3.53;;;;;;;;;;4935430;29;20437;-70
2022/06/15 07:28:19;;;;;;;3.83;3.63;;;;;;;;;;4920635;29;20523;-68
2022/06/15 07:30:45;;;;;;;4.03;3.67;;;;;;;;;;4937577;29;20415;-70
2022/06/15 07:33:11;;;;;;;4.33;3.90;;;;;;;;;;4937417;29;20836;-70
2022/06/15 07:35:38;;;;;;;3.73;3.60;;;;;;;;;;4937405;29;20411;-70
2022/06/15 07:38:05;;;;;;;4.40;3.63;;;;;;;;;;4920310;29;20521;-69
2022/06/15 07:40:31;;;;;;;4.03;3.77;;;;;;;;;;4937297;29;20573;-69
2022/06/15 07:42:57;;;;;;;7.03;3.97;;;;;;;;;;4937337;29;20480;-69
2022/06/15 07:45:25;;;;;;;4.40;4.00;;;;;;;;;;4937347;29;20410;-69
2022/06/15 07:50:37;;;;;;;6.20;3.97;;;;;;;;;;4937178;29;20565;-69
2022/06/15 07:53:04;;;;;;;7.60;3.90;;;;;;;;;;4937024;29;20412;-69
2022/06/15 07:55:32;;;;;;;3.20;3.10;;;;;;;;;;4919759;29;20437;-70
2022/06/15 07:58:00;;;;;;;4.33;4.03;;;;;;;;;;4920023;29;20500;-69
2022/06/15 08:00:26;;;;;;;4.27;3.40;;;;;;;;;;4936995;29;20852;-68
2022/06/15 08:02:52;;;;;;;3.70;3.37;;;;;;;;;;4936869;29;20961;-68
2022/06/15 08:05:19;;;;;;;4.50;4.00;;;;;;;;;;4936868;29;20410;-69
2022/06/15 08:07:46;;;;;;;5.30;3.23;;;;;;;;;;4936859;29;20422;-68
2022/06/15 08:10:13;;;;;;;5.23;3.77;;;;;;;;;;4919630;29;20429;-68
2022/06/15 08:12:40;;;;;;;4.00;3.40;;;;;;;;;;4936782;29;20423;-68
2022/06/15 08:15:06;;;;;;;6.00;3.97;;;;;;;;;;4936729;29;20408;-69
2022/06/15 08:17:37;;;;;;;4.47;3.57;;;;;;;;;;4936664;29;20416;-70
2022/06/15 08:20:07;;;;;;;3.70;3.40;;;;;;;;;;4936550;29;20492;-70
2022/06/15 08:22:34;;;;;;;3.80;3.60;;;;;;;;;;4936521;29;20470;-70
2022/06/15 08:25:00;;;;;;;4.43;4.10;;;;;;;;;;4936556;29;20552;-67
2022/06/15 08:27:26;;;;;;;4.83;4.00;;;;;;;;;;4936527;29;20423;-68
2022/06/15 08:29:52;;;;;;;4.70;3.93;;;;;;;;;;4936471;29;20416;-68
2022/06/15 08:32:19;;;;;;;3.73;3.33;;;;;;;;;;4936291;29;20849;-72
2022/06/15 08:34:45;;;;;;;5.53;4.00;;;;;;;;;;4936486;29;20433;-68
2022/06/15 08:37:14;;;;;;;4.73;3.80;;;;;;;;;;4919196;29;20515;-68
2022/06/15 08:39:40;;;;;;;5.67;3.60;;;;;;;;;;4936374;29;20431;-68
2022/06/15 08:42:06;;;;;;;3.83;3.47;;;;;;;;;;4936442;29;20844;-68
2022/06/15 08:44:48;;;;;;;7.83;4.10;;;;;;;;;;4936260;29;20461;-68
2022/06/15 08:47:42;;;;;;;4.73;3.70;;;;;;;;;;4936221;29;20406;-68
2022/06/15 08:50:13;;;;;;;5.20;4.10;;;;;;;;;;4936257;29;20536;-69
2022/06/15 08:52:50;;;;;;;8.40;3.47;;;;;;;;;;4936239;29;20405;-70
2022/06/15 08:55:16;;;;;;;4.40;4.00;;;;;;;;;;4936046;29;20511;-68
2022/06/15 08:57:50;;;;;;;4.27;3.73;;;;;;;;;;4936046;29;20496;-69
2022/06/15 09:00:19;;;;;;;3.77;3.50;;;;;;;;;;4919338;29;20784;-68
2022/06/15 09:02:53;;;;;;;5.87;3.80;;;;;;;;;;4936119;29;20482;-69
2022/06/15 09:05:19;;;;;;;4.67;3.73;;;;;;;;;;4936138;29;20411;-68
2022/06/15 09:07:45;;;;;;;5.27;3.87;;;;;;;;;;4936303;29;20402;-67
2022/06/15 09:10:14;;;;;;;8.70;3.97;;;;;;;;;;4918952;29;20829;-69
2022/06/15 09:12:59;;;;;;;4.07;3.70;;;;;;;;;;4936083;29;20770;-68
2022/06/15 09:15:28;;;;;;;4.13;3.87;;;;;;;;;;4936074;29;20452;-68
2022/06/15 09:17:55;;;;;;;5.00;3.87;;;;;;;;;;4935977;29;20782;-68
2022/06/15 09:20:21;;;;;;;4.10;3.80;;;;;;;;;;4939951;29;20459;-68
2022/06/15 09:22:53;;;;;;;4.30;4.17;;;;;;;;;;4922574;29;20511;-68
2022/06/15 09:25:35;;;;;;;7.33;3.83;;;;;;;;;;4939234;29;20419;-71
2022/06/15 09:28:25;;;;;;;3.90;3.60;;;;;;;;;;4939696;29;20931;-69
2022/06/15 09:30:52;;;;;;;4.40;3.10;;;;;;;;;;4930730;29;20442;-68
2022/06/15 09:33:18;;;;;;;4.93;3.37;;;;;;;;;;4935341;29;20519;-69
2022/06/15 09:35:46;;;;;;;3.60;3.30;;;;;;;;;;4939615;29;20466;-68
2022/06/15 09:38:13;;;;;;;11.13;3.30;;;;;;;;;;4939582;29;20416;-68
2022/06/15 09:40:44;;;;;;;3.40;3.23;;;;;;;;;;4939742;29;20424;-68
2022/06/15 09:43:10;;;;;;;4.20;3.00;;;;;;;;;;4939361;29;20526;-69
2022/06/15 09:45:42;;;;;;;3.30;3.20;;;;;;;;;;4939455;29;20420;-69
2022/06/15 09:48:08;;;;;;;3.37;3.10;;;;;;;;;;4939489;29;20463;-68
2022/06/15 09:50:44;;;;;;;7.93;2.93;;;;;;;;;;4938090;29;20428;-69
2022/06/15 09:53:13;;;;;;;3.17;2.97;;;;;;;;;;4939281;29;20408;-69
2022/06/15 09:55:44;;;;;;;3.23;2.93;;;;;;;;;;4939232;29;20427;-69
2022/06/15 09:58:12;;;;;;;3.03;2.60;;;;;;;;;;4939263;29;20892;-71
2022/06/15 10:00:39;;;;;;;3.47;2.93;;;;;;;;;;4937928;29;20420;-70
2022/06/15 10:03:07;;;;;;;4.67;2.60;;;;;;;;;;4939033;29;21015;-71
2022/06/15 10:05:35;;;;;;;8.10;3.00;;;;;;;;;;4937803;29;20460;-70
2022/06/15 10:08:05;;;;;;;3.60;2.60;;;;;;;;;;4939079;29;20413;-70
2022/06/15 10:10:34;;;;;;;8.83;3.07;;;;;;;;;;4939014;29;20445;-64
2022/06/15 10:13:05;;;;;;;2.50;2.40;;;;;;;;;;4939254;29;20419;-61
2022/06/15 10:15:40;;;;;;;2.73;2.63;;;;;;;;;;4939018;29;20416;-63
2022/06/15 10:18:25;;;;;;;2.60;2.57;;;;;;;;;;4939199;29;20412;-60
2022/06/15 10:20:58;;;;;;;2.63;2.53;;;;;;;;;;4938840;29;20404;-64
2022/06/15 10:23:30;;;;;;;2.57;2.47;;;;;;;;;;4938755;29;20476;-60
2022/06/15 10:25:56;;;;;;;2.13;2.13;;;;;;;;;;4937489;29;20428;-64
2022/06/15 10:28:22;;;;;;;3.17;1.90;;;;;;;;;;4938658;29;20413;-62
2022/06/15 10:30:54;;;;;;;3.17;2.57;;;;;;;;;;4937478;29;20901;-65
2022/06/15 10:33:20;;;;;;;2.93;2.73;;;;;;;;;;4938502;29;20243;-62
2022/06/15 10:35:57;;;;;;;2.80;2.60;;;;;;;;;;4938820;29;20409;-64
2022/06/15 10:38:23;;;;;;;5.70;2.57;;;;;;;;;;4938471;29;20816;-61
2022/06/15 10:40:55;;;;;;;2.93;2.70;;;;;;;;;;4938472;29;20416;-64
2022/06/15 10:43:32;;;;;;;2.47;2.37;;;;;;;;;;4938596;29;20476;-60
2022/06/15 10:46:03;;;;;;;3.13;2.47;;;;;;;;;;4938424;29;20471;-62
2022/06/15 10:48:29;;;;;;;2.30;2.10;;;;;;;;;;4938620;29;20455;-66
2022/06/15 10:51:06;;;;;;;2.30;2.17;;;;;;;;;;4938279;29;20424;-66
2022/06/15 10:53:34;;;;;;;2.63;2.53;;;;;;;;;;4938258;29;20200;-63
2022/06/15 11:02:08;;;;;;;2.30;2.13;;;;;;;;;;4938239;29;20404;-63
2022/06/15 11:04:50;;;;;;;2.50;2.00;;;;;;;;;;4935173;29;20431;-66
2022/06/15 11:07:16;;;;;;;1.40;1.30;;;;;;;;;;4938053;29;20429;-64
2022/06/15 11:09:44;;;;;;;3.97;1.97;;;;;;;;;;4937914;29;20798;-64
2022/06/15 11:12:28;;;;;;;2.00;1.90;;;;;;;;;;4937930;29;20185;-63
2022/06/15 11:14:56;;;;;;;2.63;1.80;;;;;;;;;;4937806;29;20413;-64
2022/06/15 11:20:23;;;;;;;1.50;1.50;;;;;;;;;;4937817;29;20396;-62
2022/06/15 11:22:50;;;;;;;1.87;1.77;;;;;;;;;;4937705;29;20478;-64
2022/06/15 11:25:18;;;;;;;1.73;1.73;;;;;;;;;;4937637;29;20409;-62
2022/06/15 11:28:00;;;;;;;1.50;1.40;;;;;;;;;;4937707;29;20400;-66
2022/06/15 11:30:32;;;;;;;2.07;1.73;;;;;;;;;;4937755;29;20420;-63
2022/06/15 11:33:05;;;;;;;2.20;2.10;;;;;;;;;;4937385;29;20990;-65
2022/06/15 11:35:40;;;;;;;1.60;1.53;;;;;;;;;;4920399;29;20527;-66
2022/06/15 11:38:15;;;;;;;1.50;1.50;;;;;;;;;;4937680;29;20815;-64
2022/06/15 11:40:41;;;;;;;3.73;1.93;;;;;;;;;;4937182;29;20426;-61
2022/06/15 11:43:16;;;;;;;2.43;2.33;;;;;;;;;;4936971;29;20476;-64
2022/06/15 11:45:51;;;;;;;2.10;2.00;;;;;;;;;;4937223;29;20413;-64
2022/06/15 11:48:27;;;;;;;1.90;1.80;;;;;;;;;;4937262;29;20408;-64
2022/06/15 11:50:57;;;;;;;2.30;2.00;;;;;;;;;;4937194;29;20408;-65
2022/06/15 11:53:35;;;;;;;3.13;3.03;;;;;;;;;;4937150;29;20494;-66
2022/06/15 11:56:04;;;;;;;1.97;1.83;;;;;;;;;;4937037;29;20409;-66
2022/06/15 11:58:42;;;;;;;2.20;2.10;;;;;;;;;;4937241;29;20499;-61
2022/06/15 12:01:27;;;;;;;2.40;2.20;;;;;;;;;;4937041;29;20408;-64
2022/06/15 12:04:05;;;;;;;2.27;2.17;;;;;;;;;;4937062;29;20429;-62
2022/06/15 12:07:06;;;;;;;2.40;2.30;;;;;;;;;;4936901;29;20435;-61
2022/06/15 12:09:43;;;;;;;1.77;1.77;;;;;;;;;;4878266;29;20890;-62
2022/06/15 12:12:40;;;;;;;1.80;1.80;;;;;;;;;;4929143;29;20535;-61
2022/06/15 12:15:15;;;;;;;3.23;2.10;;;;;;;;;;4937026;29;20495;-60
2022/06/15 12:17:50;;;;;;;1.97;1.97;;;;;;;;;;4936696;29;20751;-61
2022/06/15 12:20:16;;;;;;;1.83;1.83;;;;;;;;;;4936723;29;20423;-61
2022/06/15 12:22:50;;;;;;;1.90;1.80;;;;;;;;;;4936550;29;20472;-61
2022/06/15 12:25:34;;;;;;;1.77;1.77;;;;;;;;;;4936565;29;20576;-61
2022/06/15 12:28:18;;;;;;;2.07;1.97;;;;;;;;;;4936623;29;20409;-64
2022/06/15 12:30:44;;;;;;;3.60;1.80;;;;;;;;;;4936554;29;20424;-62
2022/06/15 12:33:25;;;;;;;2.80;1.87;;;;;;;;;;4936349;29;20861;-65
2022/06/15 12:35:55;;;;;;;1.97;1.87;;;;;;;;;;4936444;29;20201;-61
2022/06/15 12:38:24;;;;;;;2.40;2.20;;;;;;;;;;4936398;29;20885;-64
2022/06/15 12:40:56;;;;;;;5.43;1.80;;;;;;;;;;4936440;29;20423;-63
2022/06/15 12:43:34;;;;;;;1.70;1.70;;;;;;;;;;4936299;29;20526;-61
2022/06/15 12:46:17;;;;;;;1.90;1.80;;;;;;;;;;4936320;29;20464;-60
2022/06/15 12:48:56;;;;;;;2.00;1.90;;;;;;;;;;4936522;29;20503;-61
2022/06/15 12:51:39;;;;;;;2.53;2.10;;;;;;;;;;4936240;29;20420;-61
2022/06/15 12:54:15;;;;;;;2.13;1.97;;;;;;;;;;4935647;29;20435;-62
2022/06/15 12:56:41;;;;;;;2.83;1.70;;;;;;;;;;4936244;29;20432;-61
2022/06/15 12:59:14;;;;;;;6.43;1.80;;;;;;;;;;4936478;29;20415;-63
2022/06/15 13:01:46;;;;;;;5.37;1.70;;;;;;;;;;4936287;29;20346;-61
2022/06/15 13:04:17;;;;;;;1.90;1.80;;;;;;;;;;4936456;29;20421;-62
2022/06/15 13:06:43;;;;;;;6.83;2.20;;;;;;;;;;4936327;29;20430;-61
2022/06/15 13:09:14;;;;;;;1.80;1.70;;;;;;;;;;4936177;29;20452;-62
2022/06/15 13:11:51;;;;;;;3.87;2.00;;;;;;;;;;4936185;29;20417;-59
2022/06/15 13:14:17;;;;;;;3.00;1.80;;;;;;;;;;4935929;29;20404;-59
2022/06/15 13:16:55;;;;;;;1.80;1.80;;;;;;;;;;4918921;29;20425;-60
2022/06/15 13:19:51;;;;;;;2.03;1.80;;;;;;;;;;4935912;29;20775;-60
2022/06/15 13:22:23;;;;;;;6.30;2.20;;;;;;;;;;4923719;29;20564;-60
2022/06/15 13:24:54;;;;;;;1.97;1.77;;;;;;;;;;4936083;29;20396;-61
2022/06/15 13:27:25;;;;;;;2.93;1.97;;;;;;;;;;4935914;29;20421;-60
2022/06/15 13:29:53;;;;;;;8.30;2.10;;;;;;;;;;4935971;29;20405;-60
2022/06/15 13:32:38;;;;;;;4.50;1.80;;;;;;;;;;4935586;29;20487;-60
2022/06/15 13:35:24;;;;;;;1.70;1.70;;;;;;;;;;4935829;29;20404;-62
2022/06/15 13:37:57;;;;;;;1.50;1.50;;;;;;;;;;4936006;29;20468;-64
2022/06/15 13:40:23;;;;;;;2.77;1.63;;;;;;;;;;4936131;29;20436;-63
2022/06/15 13:42:55;;;;;;;5.93;2.20;;;;;;;;;;4936070;29;20568;-62
2022/06/15 13:45:22;;;;;;;3.80;1.73;;;;;;;;;;4936028;29;20768;-60
2022/06/15 13:48:03;;;;;;;2.20;2.10;;;;;;;;;;4935802;29;20463;-59
2022/06/15 13:50:29;;;;;;;3.50;2.20;;;;;;;;;;4935736;29;20859;-61
2022/06/15 13:52:56;;;;;;;2.40;2.20;;;;;;;;;;4935707;29;20409;-60
2022/06/15 13:55:21;;;;;;;1.90;1.80;;;;;;;;;;4935667;29;20413;-59
2022/06/15 13:58:11;;;;;;;2.87;1.87;;;;;;;;;;4935736;29;20416;-59
2022/06/15 14:00:37;;;;;;;1.90;1.80;;;;;;;;;;4935716;29;20557;-60
2022/06/15 14:03:15;;;;;;;1.97;1.97;;;;;;;;;;4935597;29;20479;-60
2022/06/15 14:06:01;;;;;;;4.93;2.30;;;;;;;;;;4938147;29;20412;-61
2022/06/15 14:08:44;;;;;;;2.10;2.00;;;;;;;;;;4939012;29;20405;-60
2022/06/15 14:11:23;;;;;;;2.30;2.13;;;;;;;;;;4921833;29;20428;-62
2022/06/15 14:13:52;;;;;;;2.30;1.93;;;;;;;;;;4921914;29;21003;-60
2022/06/15 14:16:26;;;;;;;2.57;2.33;;;;;;;;;;4938934;29;20420;-61
2022/06/15 14:18:55;;;;;;;2.60;1.97;;;;;;;;;;4938865;29;20420;-60
2022/06/15 14:21:28;;;;;;;2.57;2.13;;;;;;;;;;4938866;29;20421;-62
2022/06/15 14:23:54;;;;;;;3.13;2.13;;;;;;;;;;4938776;29;20424;-60
2022/06/15 14:26:23;;;;;;;3.17;2.30;;;;;;;;;;4938723;29;20572;-61
2022/06/15 14:28:54;;;;;;;5.70;2.30;;;;;;;;;;4938619;29;20512;-61
2022/06/15 14:31:22;;;;;;;1.63;1.63;;;;;;;;;;4938524;29;20424;-61
2022/06/15 14:33:54;;;;;;;2.43;2.20;;;;;;;;;;4938924;29;20433;-61
2022/06/15 14:36:22;;;;;;;8.60;2.60;;;;;;;;;;4938783;29;20412;-62
2022/06/15 14:38:59;;;;;;;2.47;2.27;;;;;;;;;;4938808;29;20839;-61
2022/06/15 14:41:30;;;;;;;3.27;1.60;;;;;;;;;;4921298;29;20432;-61
2022/06/15 14:43:56;;;;;;;3.03;1.83;;;;;;;;;;4938456;29;20445;-61
2022/06/15 14:46:38;;;;;;;4.77;1.73;;;;;;;;;;4938685;29;20800;-62
2022/06/15 14:49:04;;;;;;;1.97;1.87;;;;;;;;;;4938370;29;20503;-61
2022/06/15 14:51:30;;;;;;;2.50;1.73;;;;;;;;;;4938372;29;20448;-61
2022/06/15 14:54:02;;;;;;;5.13;2.27;;;;;;;;;;4938331;29;20464;-61
2022/06/15 14:56:30;;;;;;;2.17;2.07;;;;;;;;;;4938185;29;20423;-61
2022/06/15 14:59:00;;;;;;;2.00;1.90;;;;;;;;;;4938199;29;20474;-62
2022/06/15 15:01:26;;;;;;;1.90;1.80;;;;;;;;;;4938340;29;20421;-61
2022/06/15 15:03:52;;;;;;;2.03;1.80;;;;;;;;;;4938103;29;20954;-61
2022/06/15 15:06:19;;;;;;;2.00;1.90;;;;;;;;;;4938090;29;20446;-62
2022/06/15 15:08:48;;;;;;;2.60;1.70;;;;;;;;;;4938083;29;20421;-62
2022/06/15 15:11:34;;;;;;;1.60;1.50;;;;;;;;;;4937882;29;20841;-61
2022/06/15 15:14:02;;;;;;;1.63;1.63;;;;;;;;;;4937938;29;20419;-63